Kasper, South Dakota
Current Conditions -  °F | °C
As of 11:36 PM on Friday 19 Dec 2014 (Local Time) from KPIR Reporting Station
Haze Haze  
Wind Chill: 16°   Ceiling: Unl
Heat Index: 16°   Visibility: 1.5mi
Dew Point: 15°   Wind: 0mph
Humidity: 96%   Direction: NA
Pressure: 29.97"   Gusts: NA
Location:  44.7159°N, 100.106°W
Report Text: KPIR 200536Z AUTO 00000KT 1 1/2SM BR CLR M09/M09 A2997 RMK AO2 T10891094
Loading
Personal Weather Stations






























Interactive Weather Map New forecast layout! Learn more

10-Day Weather Forecast

Advertisements
Track Severe Weather on mobile